Long Mott, TX

7:08 AM CDT on September 30, 2014 (GMT -0500)
Alamo heights | Change Station
CLOSE
Current Station
Personal Weather Station
Location: Port Lavaca, TX
Elevation: 36 ft
Nearby Weather Stations

Elev 36 ft 28.61 °N, 96.63 °W | Updated 43 seconds ago

Fog
Fog
74.8 °F
Feels Like 73 °F
N
2.0
Wind Variable Wind from NNE
Gusts 2.0 mph

Today
High -- | Low -- °F
--% Chance of Precip.
Yesterday
High -- | Low -- °F
Precip. -- in
7:19 AM 7:13 PM
Waxing Crescent, 36% visible
Pressure 29.85 in
Visibility 2.0 miles
Clouds Mostly Cloudy 9000 ft
Heat Index 73 °F
Dew Point 74 °F
Humidity 96%
Rainfall 0.00 in
Snow Depth Not available.
UV 0.0 out of 12
Pollen 7.30 out of 12
Ozone Good
Flu Activity Not available.
METAR KPKV 301155Z AUTO 01003KT 2SM BR BKN090 23/22 A2985 RMK AO2 T02250220 10241 20224

More Conditions Fewer Conditions

Pressure 29.85 in
Visibility 2.0 miles
Clouds Mostly Cloudy 9000 ft
Heat Index 73 °F
Dew Point 74 °F
Humidity 96%
Rainfall 0.00 in
Snow Depth Not available.
UV 0.0 out of 12
Pollen 7.30 out of 12
Ozone Good
Flu Activity Not available.
METAR KPKV 301155Z AUTO 01003KT 2SM BR BKN090 23/22 A2985 RMK AO2 T02250220 10241 20224

More Conditions Fewer Conditions

Nowcast | as of 6:41 am CDT on September 30, 2014

Through 830 am CDT...patchy dense fog will continue across the Victoria Crossroads. Visibilities will generally range from 1 to 4 miles with a few locations down to 1/4 of a mile or less at times. Motorists should drive with caution in areas of reduced visibility. Use low beam headlights and allow extra time to reach your destination.

×

10-Day Weather Forecast

Almanac

Astronomy

Sep. 30, 2014 Rise Set
Actual Time 7:19 AM CDT 7:13 PM CDT
Civil Twilight 6:55 AM CDT 7:37 PM CDT
Nautical Twilight 6:28 AM CDT 8:04 PM CDT
Astronomical Twilight 6:00 AM CDT 8:31 PM CDT
Moon 1:06 PM CDT No Moon Set
Length of Visible Light 12h 41m
Length of Day
11h 54m
Tomorrow will be 1m 42s shorter.
Waxing Crescent, 36% of the Moon is Illuminated
Today
Waxing Crescent
Oct 1
First Quarter
Oct 8
Full
Oct 15
Last Quarter
Oct 23
New

Today's Extremes

State Highs State Lows

Community

WunderPhotos

Upload Photos

1,757,619 photos uploaded!

Nearby

Air Quality

  Air Quality AQ Index Pollutant
Yesterday Good
OZONE
Current Good
OZONE
Tuesday Good
OZONE
Tuesday Good
PM10
Wednesday Good
OZONE
Wednesday Good
PM10
Thursday Good
OZONE
Thursday Good
PM10

Snow Depth

Station Depth Elevation
No new snow has been reported.

Earthquake Activity

City Distance Mag. Time & Date
No recent earthquake activity has been reported nearby.
Minimum magnitude displayed is 2.5.

Coastal Water Temperatures

Place Temperature
Seadrift, TX 80.1 °F
Rockport, TX 80.1 °F
USCG Freeport, TX 80.1 °F

Nearby Weather Stations